Prospect Heights, IL (60070)

12:34 PM CDT on May 25, 2015 (GMT -0500)
Hawaii Park | | Change Station
CLOSE
Current Station
Personal Weather Station
Location: Des Plaines, IL
Elevation: 669 ft
Nearby Weather Stations

Elev 669 ft 42.06 °N, 87.91 °W | Updated 13 seconds ago

Light Rain
Light Rain
73.1 °F
Feels Like 72 °F
N
5.0
Wind Variable Wind from SW
Gusts 6.0 mph

Today
High -- | Low -- °F
--% Chance of Precip.
Yesterday
High -- | Low -- °F
Precip. -- in
5:22 AM 8:15 PM
Waxing Crescent, 50% visible
Pressure 29.88 in
Visibility 10.0 miles
Clouds Scattered Clouds 1700 ft
Mostly Cloudy 2600 ft
Overcast 5500 ft
Heat Index 72 °F
Dew Point 68 °F
Humidity 85%
Rainfall in
Snow Depth Not available.
UV 3 out of 12
Pollen 6.70 out of 12
Air Quality Not available.
Flu Activity Sporadic
SPECI KPWK 251702Z 20010KT 10SM -RA SCT017 BKN026 OVC055 22/18 A2988 RMK AO2 RAB1659 P0000 T02170178

More Conditions Fewer Conditions

Pressure 29.88 in
Visibility 10.0 miles
Clouds Scattered Clouds 1700 ft
Mostly Cloudy 2600 ft
Overcast 5500 ft
Heat Index 72 °F
Dew Point 68 °F
Humidity 85%
Rainfall in
Snow Depth Not available.
UV 3 out of 12
Pollen 6.70 out of 12
Air Quality Not available.
Flu Activity Sporadic
SPECI KPWK 251702Z 20010KT 10SM -RA SCT017 BKN026 OVC055 22/18 A2988 RMK AO2 RAB1659 P0000 T02170178

More Conditions Fewer Conditions

10-Day Weather Forecast

Almanac

Astronomy

May. 25, 2015 Rise Set
Actual Time
Civil Twilight
Nautical Twilight
Astronomical Twilight
Moon
Length of Visible Light
Length of Day
Tomorrow will be .
, % of the Moon is Illuminated

Today's Extremes

State Highs State Lows

Community

WunderPhotos

Upload Photos

1,824,070 photos uploaded!

WunderBlogs® & News

Nearby

Air Quality

  Air Quality AQ Index Pollutant
Not available.

Snow Depth

Station Depth Elevation

Earthquake Activity

City Distance Mag. Time & Date
Minimum magnitude displayed is 2.5.

Coastal Water Temperatures

Place Temperature

Stations

Nearby Weather Stations

Station Location Temp. Windchill Dew Point Humidity Wind Precip. Elev Updated Type